createdAt,value
2019-05-05T00:01:00.045Z,20.31
2019-05-05T00:02:17.532Z,20.31
2019-05-05T00:03:39.635Z,20.31
2019-05-05T00:05:05.269Z,20.31
2019-05-05T00:06:05.302Z,20.31
2019-05-05T00:07:04.282Z,20.31
2019-05-05T00:08:00.661Z,20.31
2019-05-05T00:08:57.365Z,20.25
2019-05-05T00:09:55.102Z,20.25
2019-05-05T00:11:01.029Z,20.25
2019-05-05T00:12:14.710Z,20.25
2019-05-05T00:13:22.542Z,20.25
2019-05-05T00:14:29.091Z,20.25
2019-05-05T00:15:48.208Z,20.25
2019-05-05T00:16:58.324Z,20.25
2019-05-05T00:17:55.115Z,20.25
2019-05-05T00:18:54.154Z,20.25
2019-05-05T00:19:50.824Z,20.25
2019-05-05T00:20:47.528Z,20.19
2019-05-05T00:21:44.659Z,20.19
2019-05-05T00:22:41.362Z,20.19
2019-05-05T00:23:38.062Z,20.19
2019-05-05T00:24:35.153Z,20.19
2019-05-05T00:25:32.288Z,20.19
2019-05-05T00:26:30.384Z,20.19
2019-05-05T00:27:27.110Z,20.19
2019-05-05T00:28:24.856Z,20.19
2019-05-05T00:29:21.721Z,20.19
2019-05-05T00:30:18.420Z,20.19
2019-05-05T00:31:15.173Z,20.12
2019-05-05T00:32:11.845Z,20.12
2019-05-05T00:33:08.536Z,20.12
2019-05-05T00:34:05.359Z,20.12
2019-05-05T00:35:04.250Z,20.12
2019-05-05T00:36:00.554Z,20.12
2019-05-05T00:36:57.260Z,20.12
2019-05-05T00:37:54.473Z,20.12
2019-05-05T00:38:51.276Z,20.12
2019-05-05T00:39:47.981Z,20.12
2019-05-05T00:40:44.688Z,20.12
2019-05-05T00:41:41.389Z,20.12
2019-05-05T00:42:38.121Z,20.12
2019-05-05T00:43:34.834Z,20.12
2019-05-05T00:44:31.550Z,20.12
2019-05-05T00:45:29.049Z,20.06
2019-05-05T00:46:44.683Z,20.06
2019-05-05T00:47:46.353Z,20.06
2019-05-05T00:48:44.641Z,20.06
2019-05-05T00:49:46.311Z,20.06
2019-05-05T00:50:40.397Z,20.06
2019-05-05T00:51:37.098Z,20.06
2019-05-05T00:52:35.189Z,20.06
2019-05-05T00:53:34.120Z,20.06
2019-05-05T00:54:30.478Z,20.06
2019-05-05T00:55:27.162Z,20.06
2019-05-05T00:56:25.035Z,20.00
2019-05-05T00:57:21.873Z,20.00
2019-05-05T00:58:18.597Z,20.00
2019-05-05T00:59:17.130Z,20.00
2019-05-05T01:00:15.636Z,20.00
2019-05-05T01:01:34.187Z,20.00
2019-05-05T01:02:46.239Z,20.00
2019-05-05T01:03:44.197Z,20.00
2019-05-05T01:04:48.485Z,20.00
2019-05-05T01:05:50.335Z,20.00
2019-05-05T01:06:47.041Z,20.00
2019-05-05T01:07:44.389Z,20.00
2019-05-05T01:08:41.190Z,20.00
2019-05-05T01:09:39.394Z,20.00
2019-05-05T01:10:36.105Z,19.94
2019-05-05T01:11:32.809Z,19.94
2019-05-05T01:12:29.510Z,19.94
2019-05-05T01:13:26.241Z,19.94
2019-05-05T01:14:24.872Z,19.94
2019-05-05T01:15:21.453Z,19.94
2019-05-05T01:16:18.168Z,19.94
2019-05-05T01:17:14.882Z,19.94
2019-05-05T01:18:11.621Z,19.94
2019-05-05T01:19:08.326Z,19.94
2019-05-05T01:20:06.988Z,19.94
2019-05-05T01:21:04.552Z,19.94
2019-05-05T01:22:01.446Z,19.94
2019-05-05T01:22:58.185Z,19.94
2019-05-05T01:23:54.971Z,19.94
2019-05-05T01:24:51.606Z,19.94
2019-05-05T01:25:48.799Z,19.94
2019-05-05T01:26:45.621Z,19.87
2019-05-05T01:27:42.325Z,19.94
2019-05-05T01:28:39.054Z,19.87
2019-05-05T01:29:35.755Z,19.87
2019-05-05T01:30:35.050Z,19.87
2019-05-05T01:31:31.905Z,19.87
2019-05-05T01:32:32.882Z,19.87
2019-05-05T01:33:34.661Z,19.87
2019-05-05T01:34:35.266Z,19.87
2019-05-05T01:35:34.018Z,19.87
2019-05-05T01:36:30.485Z,19.87
2019-05-05T01:37:38.558Z,19.87
2019-05-05T01:38:41.349Z,19.87
2019-05-05T01:40:01.228Z,19.87
2019-05-05T01:41:11.293Z,19.81
2019-05-05T01:42:11.677Z,19.81
2019-05-05T01:43:08.383Z,19.87
2019-05-05T01:44:05.110Z,19.87
2019-05-05T01:45:01.815Z,19.81
2019-05-05T01:45:58.521Z,19.81
2019-05-05T01:46:55.232Z,19.81
2019-05-05T01:47:51.934Z,19.81
2019-05-05T01:48:48.662Z,19.81
2019-05-05T01:49:45.553Z,19.81
2019-05-05T01:50:42.277Z,19.81
2019-05-05T01:51:38.992Z,19.81
2019-05-05T01:52:35.697Z,19.81
2019-05-05T01:53:32.396Z,19.81
2019-05-05T01:54:29.118Z,19.81
2019-05-05T01:55:25.829Z,19.81
2019-05-05T01:56:24.548Z,19.81
2019-05-05T01:57:21.057Z,19.75
2019-05-05T01:58:17.761Z,19.75
2019-05-05T01:59:14.551Z,19.75
2019-05-05T02:00:11.257Z,19.75
2019-05-05T02:01:07.965Z,19.75
2019-05-05T02:02:04.664Z,19.75
2019-05-05T02:03:01.374Z,19.75
2019-05-05T02:03:58.074Z,19.75
2019-05-05T02:04:55.470Z,19.75
2019-05-05T02:05:54.454Z,19.75
2019-05-05T02:06:50.813Z,19.75
2019-05-05T02:07:47.513Z,19.75
2019-05-05T02:08:45.428Z,19.75
2019-05-05T02:09:44.193Z,19.75
2019-05-05T02:10:40.867Z,19.75
2019-05-05T02:11:37.567Z,19.75
2019-05-05T02:12:35.279Z,19.75
2019-05-05T02:13:32.077Z,19.75
2019-05-05T02:14:28.796Z,19.75
2019-05-05T02:15:25.485Z,19.75
2019-05-05T02:16:22.186Z,19.69
2019-05-05T02:17:18.894Z,19.69
2019-05-05T02:18:15.598Z,19.69
2019-05-05T02:19:14.195Z,19.69
2019-05-05T02:20:10.837Z,19.69
2019-05-05T02:21:07.547Z,19.69
2019-05-05T02:22:05.276Z,19.69
2019-05-05T02:23:02.178Z,19.69
2019-05-05T02:23:58.869Z,19.69
2019-05-05T02:24:55.602Z,19.69
2019-05-05T02:25:52.305Z,19.69
2019-05-05T02:26:49.008Z,19.69
2019-05-05T02:27:45.713Z,19.69
2019-05-05T02:28:54.235Z,19.69
2019-05-05T02:30:00.933Z,19.69
2019-05-05T02:31:16.643Z,19.69
2019-05-05T02:32:18.654Z,19.62
2019-05-05T02:33:15.821Z,19.69
2019-05-05T02:34:12.664Z,19.62
2019-05-05T02:35:11.938Z,19.62
2019-05-05T02:36:08.635Z,19.62
2019-05-05T02:37:05.665Z,19.62
2019-05-05T02:38:02.450Z,19.62
2019-05-05T02:38:59.163Z,19.62
2019-05-05T02:40:02.494Z,19.62
2019-05-05T02:40:54.988Z,19.62
2019-05-05T02:41:54.618Z,19.62
2019-05-05T02:42:54.883Z,19.62
2019-05-05T02:43:51.589Z,19.62
2019-05-05T02:44:48.298Z,19.62
2019-05-05T02:45:45.319Z,19.62
2019-05-05T02:46:46.002Z,19.62
2019-05-05T02:48:01.063Z,19.62
2019-05-05T02:48:57.871Z,19.62
2019-05-05T02:49:55.001Z,19.56
2019-05-05T02:51:00.752Z,19.56
2019-05-05T02:51:55.149Z,19.56
2019-05-05T02:52:50.863Z,19.56
2019-05-05T02:53:47.573Z,19.56
2019-05-05T02:54:44.291Z,19.56
2019-05-05T02:55:40.994Z,19.56
2019-05-05T02:56:45.772Z,19.56
2019-05-05T02:57:43.940Z,19.56
2019-05-05T02:58:40.789Z,19.56
2019-05-05T02:59:47.064Z,19.56
2019-05-05T03:00:57.545Z,19.56
2019-05-05T03:02:01.049Z,19.56
2019-05-05T03:02:57.990Z,19.56
2019-05-05T03:03:54.693Z,19.56
2019-05-05T03:04:53.566Z,19.56
2019-05-05T03:05:49.934Z,19.56
2019-05-05T03:06:46.665Z,19.56
2019-05-05T03:07:43.826Z,19.50
2019-05-05T03:08:40.580Z,19.56
2019-05-05T03:09:37.286Z,19.56
2019-05-05T03:10:34.089Z,19.50
2019-05-05T03:11:30.822Z,19.50
2019-05-05T03:12:27.529Z,19.50
2019-05-05T03:13:24.406Z,19.50
2019-05-05T03:14:21.146Z,19.50
2019-05-05T03:15:17.845Z,19.50
2019-05-05T03:16:14.673Z,19.50
2019-05-05T03:17:11.294Z,19.50
2019-05-05T03:18:07.999Z,19.50
2019-05-05T03:19:04.717Z,19.50
2019-05-05T03:20:01.422Z,19.50
2019-05-05T03:21:04.446Z,19.50
2019-05-05T03:21:56.661Z,19.50
2019-05-05T03:22:53.916Z,19.50
2019-05-05T03:23:50.669Z,19.50
2019-05-05T03:24:47.378Z,19.50
2019-05-05T03:25:44.161Z,19.50
2019-05-05T03:26:40.869Z,19.50
2019-05-05T03:27:37.618Z,19.50
2019-05-05T03:28:51.258Z,19.50
2019-05-05T03:29:47.969Z,19.50
2019-05-05T03:30:45.559Z,19.44
2019-05-05T03:31:45.451Z,19.44
2019-05-05T03:32:41.023Z,19.44
2019-05-05T03:33:37.735Z,19.44
2019-05-05T03:34:34.473Z,19.44
2019-05-05T03:35:31.146Z,19.44
2019-05-05T03:36:27.854Z,19.44
2019-05-05T03:37:25.085Z,19.44
2019-05-05T03:38:21.881Z,19.44
2019-05-05T03:39:23.619Z,19.44
2019-05-05T03:40:25.018Z,19.44
2019-05-05T03:41:26.818Z,19.44
2019-05-05T03:42:31.301Z,19.44
2019-05-05T03:43:30.326Z,19.44
2019-05-05T03:44:29.819Z,19.44
2019-05-05T03:45:53.701Z,19.44
2019-05-05T03:46:50.340Z,19.44
2019-05-05T03:47:47.043Z,19.44
2019-05-05T03:48:43.883Z,19.44
2019-05-05T03:49:40.581Z,19.44
2019-05-05T03:50:37.297Z,19.44
2019-05-05T03:51:34.517Z,19.37
2019-05-05T03:52:31.417Z,19.37
2019-05-05T03:53:28.127Z,19.37
2019-05-05T03:54:24.820Z,19.37
2019-05-05T03:55:21.547Z,19.37
2019-05-05T03:56:18.245Z,19.37
2019-05-05T03:57:14.944Z,19.37
2019-05-05T03:58:11.650Z,19.37
2019-05-05T03:59:08.377Z,19.37
2019-05-05T04:00:05.378Z,19.37
2019-05-05T04:01:04.187Z,19.37
2019-05-05T04:02:14.861Z,19.37
2019-05-05T04:03:11.566Z,19.37
2019-05-05T04:04:33.591Z,19.37
2019-05-05T04:05:37.419Z,19.37
2019-05-05T04:06:37.625Z,19.37
2019-05-05T04:07:34.330Z,19.37
2019-05-05T04:08:31.037Z,19.37
2019-05-05T04:09:27.741Z,19.37
2019-05-05T04:10:24.586Z,19.31
2019-05-05T04:11:21.261Z,19.37
2019-05-05T04:12:17.966Z,19.31
2019-05-05T04:13:14.674Z,19.31
2019-05-05T04:14:11.413Z,19.37
2019-05-05T04:15:08.112Z,19.31
2019-05-05T04:16:28.568Z,19.31
2019-05-05T04:17:47.797Z,19.31
2019-05-05T04:18:54.613Z,19.31
2019-05-05T04:19:54.069Z,19.31
2019-05-05T04:20:50.548Z,19.31
2019-05-05T04:21:47.258Z,19.31
2019-05-05T04:22:43.961Z,19.31
2019-05-05T04:23:40.665Z,19.31
2019-05-05T04:24:37.378Z,19.31
2019-05-05T04:25:34.994Z,19.31
2019-05-05T04:26:33.521Z,19.31
2019-05-05T04:27:30.287Z,19.31
2019-05-05T04:28:26.989Z,19.31
2019-05-05T04:29:24.444Z,19.31
2019-05-05T04:30:23.483Z,19.31
2019-05-05T04:31:19.741Z,19.31
2019-05-05T04:32:16.454Z,19.31
2019-05-05T04:33:14.196Z,19.31
2019-05-05T04:34:11.198Z,19.31
2019-05-05T04:35:07.893Z,19.31
2019-05-05T04:36:04.601Z,19.25
2019-05-05T04:37:01.314Z,19.25
2019-05-05T04:37:58.009Z,19.25
2019-05-05T04:38:54.737Z,19.25
2019-05-05T04:39:53.563Z,19.25
2019-05-05T04:40:49.954Z,19.31
2019-05-05T04:41:46.661Z,19.25
2019-05-05T04:42:44.090Z,19.25
2019-05-05T04:43:41.109Z,19.25
2019-05-05T04:44:37.813Z,19.25
2019-05-05T04:45:34.816Z,19.25
2019-05-05T04:46:33.710Z,19.25
2019-05-05T04:47:34.287Z,19.25
2019-05-05T04:48:43.973Z,19.25
2019-05-05T04:49:46.683Z,19.25
2019-05-05T04:50:51.293Z,19.25
2019-05-05T04:51:50.398Z,19.25
2019-05-05T04:52:47.484Z,19.25
2019-05-05T04:54:03.781Z,19.25
2019-05-05T04:55:00.686Z,19.25
2019-05-05T04:55:57.386Z,19.25
2019-05-05T04:56:54.145Z,19.25
2019-05-05T04:57:50.830Z,19.25
2019-05-05T04:58:47.563Z,19.25
2019-05-05T04:59:44.543Z,19.25
2019-05-05T05:00:41.194Z,19.25
2019-05-05T05:01:37.902Z,19.25
2019-05-05T05:03:06.429Z,19.25
2019-05-05T05:04:26.517Z,19.19
2019-05-05T05:05:29.814Z,19.19
2019-05-05T05:06:36.727Z,19.19
2019-05-05T05:07:34.459Z,19.19
2019-05-05T05:08:31.253Z,19.19
2019-05-05T05:09:27.990Z,19.19
2019-05-05T05:10:24.694Z,19.19
2019-05-05T05:11:21.403Z,19.19
2019-05-05T05:12:18.105Z,19.19
2019-05-05T05:13:14.811Z,19.19
2019-05-05T05:14:11.542Z,19.19
2019-05-05T05:15:08.245Z,19.19
2019-05-05T05:16:04.953Z,19.19
2019-05-05T05:17:03.566Z,19.19
2019-05-05T05:18:10.621Z,19.19
2019-05-05T05:19:07.362Z,19.19
2019-05-05T05:20:04.071Z,19.19
2019-05-05T05:21:00.765Z,19.19
2019-05-05T05:22:01.175Z,19.19
2019-05-05T05:22:55.978Z,19.19
2019-05-05T05:23:53.650Z,19.19
2019-05-05T05:24:50.413Z,19.19
2019-05-05T05:25:47.131Z,19.19
2019-05-05T05:26:44.272Z,19.19
2019-05-05T05:27:41.037Z,19.19
2019-05-05T05:28:37.741Z,19.19
2019-05-05T05:29:34.668Z,19.19
2019-05-05T05:30:31.375Z,19.19
2019-05-05T05:31:28.094Z,19.12
2019-05-05T05:32:24.869Z,19.12
2019-05-05T05:33:23.735Z,19.12
2019-05-05T05:34:20.055Z,19.12
2019-05-05T05:35:16.758Z,19.12
2019-05-05T05:36:14.452Z,19.12
2019-05-05T05:37:13.409Z,19.12
2019-05-05T05:38:09.784Z,19.12
2019-05-05T05:39:13.991Z,19.12
2019-05-05T05:40:23.593Z,19.12
2019-05-05T05:41:38.738Z,19.12
2019-05-05T05:42:35.442Z,19.12
2019-05-05T05:43:51.634Z,19.12
2019-05-05T05:45:00.886Z,19.12
2019-05-05T05:46:04.482Z,19.12
2019-05-05T05:47:24.428Z,19.12
2019-05-05T05:48:46.461Z,19.12
2019-05-05T05:49:50.513Z,19.12
2019-05-05T05:50:55.515Z,19.12
2019-05-05T05:51:53.818Z,19.12
2019-05-05T05:52:50.625Z,19.12
2019-05-05T05:53:47.325Z,19.12
2019-05-05T05:54:44.279Z,19.12
2019-05-05T05:55:41.172Z,19.12
2019-05-05T05:56:37.877Z,19.12
2019-05-05T05:57:34.671Z,19.12
2019-05-05T05:58:31.368Z,19.12
2019-05-05T05:59:28.115Z,19.12
2019-05-05T06:00:24.818Z,19.12
2019-05-05T06:01:21.518Z,19.12
2019-05-05T06:02:18.218Z,19.12
2019-05-05T06:03:14.921Z,19.12
2019-05-05T06:04:11.629Z,19.12
2019-05-05T06:05:08.376Z,19.06
2019-05-05T06:06:05.069Z,19.12
2019-05-05T06:07:03.892Z,19.06
2019-05-05T06:08:00.311Z,19.12
2019-05-05T06:08:57.008Z,19.12
2019-05-05T06:09:54.184Z,19.06
2019-05-05T06:10:50.937Z,19.06
2019-05-05T06:11:47.642Z,19.06
2019-05-05T06:12:45.019Z,19.06
2019-05-05T06:13:44.004Z,19.06
2019-05-05T06:14:40.377Z,19.06
2019-05-05T06:15:37.105Z,19.06
2019-05-05T06:16:34.264Z,19.06
2019-05-05T06:17:31.032Z,19.06
2019-05-05T06:18:27.737Z,19.06
2019-05-05T06:19:24.676Z,19.06
2019-05-05T06:20:21.471Z,19.06
2019-05-05T06:21:18.175Z,19.06
2019-05-05T06:22:27.861Z,19.06
2019-05-05T06:23:14.689Z,19.06
2019-05-05T06:24:13.508Z,19.06
2019-05-05T06:25:10.138Z,19.06
2019-05-05T06:26:07.327Z,19.06
2019-05-05T06:27:04.153Z,19.06
2019-05-05T06:28:00.862Z,19.06
2019-05-05T06:28:57.570Z,19.06
2019-05-05T06:29:54.379Z,19.06
2019-05-05T06:30:51.113Z,19.06
2019-05-05T06:31:47.813Z,19.06
2019-05-05T06:32:45.793Z,19.06
2019-05-05T06:33:43.823Z,19.06
2019-05-05T06:34:40.639Z,19.06
2019-05-05T06:35:37.373Z,19.06
2019-05-05T06:36:34.207Z,19.06
2019-05-05T06:37:30.885Z,19.06
2019-05-05T06:38:27.586Z,19.06
2019-05-05T06:39:24.305Z,19.06
2019-05-05T06:40:23.374Z,19.06
2019-05-05T06:41:39.522Z,19.00
2019-05-05T06:42:50.741Z,19.06
2019-05-05T06:43:59.725Z,19.00
2019-05-05T06:45:04.121Z,19.06
2019-05-05T06:46:01.501Z,19.06
2019-05-05T06:47:09.945Z,19.00
2019-05-05T06:48:06.670Z,19.00
2019-05-05T06:49:04.360Z,19.00
2019-05-05T06:50:03.559Z,19.00
2019-05-05T06:50:59.706Z,19.06
2019-05-05T06:51:56.413Z,19.00
2019-05-05T06:52:53.673Z,19.00
2019-05-05T06:53:50.421Z,19.00
2019-05-05T06:54:47.125Z,19.00
2019-05-05T06:55:44.474Z,19.00
2019-05-05T06:56:41.362Z,19.00
2019-05-05T06:57:38.066Z,18.87
2019-05-05T06:58:34.841Z,18.69
2019-05-05T06:59:31.476Z,18.62
2019-05-05T07:00:28.182Z,18.69
2019-05-05T07:01:24.905Z,19.19
2019-05-05T07:02:23.667Z,20.44
2019-05-05T07:03:20.133Z,22.56
2019-05-05T07:04:16.840Z,24.87
2019-05-05T07:05:14.295Z,27.19
2019-05-05T07:06:11.185Z,29.19
2019-05-05T07:07:07.885Z,30.81
2019-05-05T07:08:04.653Z,32.19
2019-05-05T07:09:01.301Z,33.25
2019-05-05T07:09:58.011Z,34.06
2019-05-05T07:10:54.948Z,34.75
2019-05-05T07:11:51.670Z,35.31
2019-05-05T07:12:48.377Z,35.81
2019-05-05T07:13:45.082Z,36.31
2019-05-05T07:14:41.793Z,36.75
2019-05-05T07:15:38.490Z,37.25
2019-05-05T07:16:35.206Z,37.81
2019-05-05T07:17:33.766Z,38.38
2019-05-05T07:18:30.430Z,39.00
2019-05-05T07:19:27.138Z,39.50
2019-05-05T07:20:24.165Z,39.81
2019-05-05T07:21:20.883Z,39.75
2019-05-05T07:22:17.859Z,39.50
2019-05-05T07:23:14.705Z,39.19
2019-05-05T07:24:11.398Z,38.88
2019-05-05T07:25:08.105Z,38.56
2019-05-05T07:26:04.833Z,38.31
2019-05-05T07:27:01.550Z,38.06
2019-05-05T07:27:58.253Z,37.69
2019-05-05T07:28:54.960Z,37.25
2019-05-05T07:29:51.665Z,36.69
2019-05-05T07:30:48.449Z,36.06
2019-05-05T07:31:45.109Z,35.25
2019-05-05T07:32:41.819Z,34.25
2019-05-05T07:33:38.521Z,33.25
2019-05-05T07:34:54.639Z,32.31
2019-05-05T07:36:01.486Z,31.69
2019-05-05T07:36:54.874Z,32.31
2019-05-05T07:37:53.754Z,33.50
2019-05-05T07:38:50.236Z,35.00
2019-05-05T07:39:46.937Z,36.56
2019-05-05T07:40:43.967Z,37.63
2019-05-05T07:41:40.801Z,38.13
2019-05-05T07:42:37.437Z,38.31
2019-05-05T07:43:34.516Z,38.25
2019-05-05T07:44:31.245Z,38.13
2019-05-05T07:45:27.950Z,37.94
2019-05-05T07:46:24.659Z,37.69
2019-05-05T07:47:21.370Z,37.44
2019-05-05T07:48:18.086Z,37.06
2019-05-05T07:49:14.795Z,36.56
2019-05-05T07:50:25.424Z,35.94
2019-05-05T07:51:10.033Z,35.19
2019-05-05T07:52:06.791Z,34.38
2019-05-05T07:53:12.309Z,33.50
2019-05-05T07:54:03.811Z,32.63
2019-05-05T07:55:00.557Z,31.94
2019-05-05T07:55:57.302Z,31.87
2019-05-05T07:56:54.042Z,32.63
2019-05-05T07:57:50.706Z,33.94
2019-05-05T07:58:47.425Z,35.63
2019-05-05T07:59:45.001Z,37.00
2019-05-05T08:00:43.639Z,37.69
2019-05-05T08:01:43.287Z,37.94
2019-05-05T08:02:38.857Z,37.94
2019-05-05T08:03:35.567Z,37.75
2019-05-05T08:04:32.282Z,37.44
2019-05-05T08:05:28.986Z,37.13
2019-05-05T08:06:25.713Z,36.75
2019-05-05T08:07:24.013Z,36.25
2019-05-05T08:08:20.822Z,35.63
2019-05-05T08:09:17.525Z,34.88
2019-05-05T08:10:14.232Z,34.06
2019-05-05T08:11:10.963Z,33.19
2019-05-05T08:12:07.665Z,32.31
2019-05-05T08:13:04.767Z,31.81
2019-05-05T08:14:03.855Z,32.00
2019-05-05T08:15:00.105Z,33.06
2019-05-05T08:16:00.061Z,34.56
2019-05-05T08:17:23.549Z,36.25
2019-05-05T08:18:37.655Z,37.44
2019-05-05T08:19:54.349Z,37.69
2019-05-05T08:20:54.254Z,37.50
2019-05-05T08:21:51.010Z,37.25
2019-05-05T08:22:47.714Z,36.94
2019-05-05T08:24:04.629Z,36.50
2019-05-05T08:25:16.050Z,35.81
2019-05-05T08:26:20.894Z,35.06
2019-05-05T08:27:46.150Z,34.31
2019-05-05T08:28:47.854Z,33.13
2019-05-05T08:29:48.680Z,32.31
2019-05-05T08:30:58.915Z,31.69
2019-05-05T08:32:04.355Z,31.81
2019-05-05T08:33:01.173Z,32.94
2019-05-05T08:33:57.882Z,34.31
2019-05-05T08:35:00.352Z,35.88
2019-05-05T08:35:54.149Z,36.94
2019-05-05T08:36:51.001Z,37.38
2019-05-05T08:37:47.734Z,37.50
2019-05-05T08:38:44.438Z,37.38
2019-05-05T08:39:41.144Z,37.06
2019-05-05T08:40:37.846Z,36.69
2019-05-05T08:41:34.554Z,36.25
2019-05-05T08:42:31.298Z,35.81
2019-05-05T08:43:28.002Z,35.25
2019-05-05T08:44:24.701Z,34.69
2019-05-05T08:45:26.006Z,34.06
2019-05-05T08:46:19.910Z,33.31
2019-05-05T08:47:16.614Z,32.56
2019-05-05T08:48:14.193Z,31.87
2019-05-05T08:49:11.150Z,31.56
2019-05-05T08:50:07.857Z,31.94
2019-05-05T08:51:05.023Z,33.00
2019-05-05T08:52:03.846Z,34.38
2019-05-05T08:53:00.406Z,35.81
2019-05-05T08:53:57.110Z,36.75
2019-05-05T08:54:54.235Z,37.19
2019-05-05T08:55:51.018Z,37.25
2019-05-05T08:56:47.721Z,37.00
2019-05-05T08:57:44.721Z,36.63
2019-05-05T08:58:43.641Z,36.25
2019-05-05T08:59:40.065Z,35.81
2019-05-05T09:00:36.769Z,35.38
2019-05-05T09:01:34.331Z,34.88
2019-05-05T09:02:33.163Z,34.31
2019-05-05T09:03:29.610Z,33.69
2019-05-05T09:04:26.327Z,33.13
2019-05-05T09:05:23.790Z,32.56
2019-05-05T09:06:20.647Z,32.00
2019-05-05T09:07:17.346Z,31.56
2019-05-05T09:08:14.087Z,31.12
2019-05-05T09:09:10.781Z,30.75
2019-05-05T09:10:07.481Z,30.44
2019-05-05T09:11:04.737Z,30.06
2019-05-05T09:12:01.695Z,29.69
2019-05-05T09:12:58.421Z,29.31
2019-05-05T09:13:55.134Z,29.00
2019-05-05T09:14:53.742Z,28.75
2019-05-05T09:15:50.362Z,28.56
2019-05-05T09:16:47.062Z,28.38
2019-05-05T09:17:44.132Z,28.19
2019-05-05T09:18:57.266Z,28.00
2019-05-05T09:19:53.969Z,27.81
2019-05-05T09:20:50.669Z,27.69
2019-05-05T09:21:47.374Z,27.56
2019-05-05T09:22:44.614Z,27.44
2019-05-05T09:23:56.015Z,27.37
2019-05-05T09:24:54.957Z,27.25
2019-05-05T09:26:11.153Z,27.19
2019-05-05T09:27:39.704Z,27.06
2019-05-05T09:28:51.362Z,26.94
2019-05-05T09:29:48.069Z,26.81
2019-05-05T09:30:46.009Z,26.75
2019-05-05T09:31:44.939Z,26.69
2019-05-05T09:32:41.218Z,26.62
2019-05-05T09:33:37.957Z,26.50
2019-05-05T09:34:34.669Z,26.44
2019-05-05T09:35:31.369Z,26.37
2019-05-05T09:36:28.070Z,26.31
2019-05-05T09:37:24.786Z,26.25
2019-05-05T09:38:23.337Z,26.19
2019-05-05T09:39:20.031Z,26.12
2019-05-05T09:40:16.734Z,26.06
2019-05-05T09:41:14.325Z,26.00
2019-05-05T09:42:11.157Z,25.94
2019-05-05T09:43:07.870Z,25.88
2019-05-05T09:44:04.602Z,25.81
2019-05-05T09:45:01.316Z,25.75
2019-05-05T09:45:58.022Z,25.69
2019-05-05T09:46:54.733Z,25.62
2019-05-05T09:47:51.434Z,25.56
2019-05-05T09:48:48.174Z,25.50
2019-05-05T09:49:44.880Z,25.44
2019-05-05T09:50:43.470Z,25.37
2019-05-05T09:51:40.083Z,25.37
2019-05-05T09:52:36.794Z,25.25
2019-05-05T09:53:34.484Z,25.25
2019-05-05T09:54:31.454Z,25.19
2019-05-05T09:55:28.133Z,25.12
2019-05-05T09:56:24.846Z,25.06
2019-05-05T09:57:23.535Z,25.00
2019-05-05T09:58:20.052Z,24.94
2019-05-05T09:59:16.782Z,24.94
2019-05-05T10:00:14.147Z,24.87
2019-05-05T10:01:10.911Z,24.81
2019-05-05T10:02:07.654Z,24.81
2019-05-05T10:03:04.366Z,24.75
2019-05-05T10:04:08.062Z,24.69
2019-05-05T10:05:04.770Z,24.69
2019-05-05T10:06:01.488Z,24.63
2019-05-05T10:06:58.198Z,24.56
2019-05-05T10:07:54.906Z,24.50
2019-05-05T10:08:53.743Z,24.50
2019-05-05T10:09:50.141Z,24.44
2019-05-05T10:10:46.853Z,24.37
2019-05-05T10:11:45.048Z,24.31
2019-05-05T10:12:41.869Z,24.31
2019-05-05T10:13:38.577Z,24.25
2019-05-05T10:14:35.310Z,24.19
2019-05-05T10:15:32.014Z,24.19
2019-05-05T10:16:28.728Z,24.12
2019-05-05T10:17:25.441Z,24.12
2019-05-05T10:18:22.142Z,24.06
2019-05-05T10:19:18.857Z,24.00
2019-05-05T10:20:15.566Z,24.00
2019-05-05T10:21:13.831Z,23.94
2019-05-05T10:22:10.773Z,23.94
2019-05-05T10:23:07.486Z,23.87
2019-05-05T10:24:09.977Z,23.81
2019-05-05T10:25:24.861Z,23.75
2019-05-05T10:26:23.708Z,23.75
2019-05-05T10:27:20.120Z,23.69
2019-05-05T10:28:16.816Z,23.62
2019-05-05T10:29:13.732Z,23.62
2019-05-05T10:30:10.669Z,23.56
2019-05-05T10:31:07.529Z,23.56
2019-05-05T10:32:04.696Z,23.50
2019-05-05T10:33:03.584Z,23.50
2019-05-05T10:34:04.491Z,23.44
2019-05-05T10:35:04.457Z,23.44
2019-05-05T10:36:00.910Z,23.38
2019-05-05T10:36:57.638Z,23.38
2019-05-05T10:37:54.606Z,23.31
2019-05-05T10:38:55.752Z,23.31
2019-05-05T10:39:54.258Z,23.25
2019-05-05T10:40:51.167Z,23.19
2019-05-05T10:41:47.902Z,23.19
2019-05-05T10:42:50.852Z,23.12
2019-05-05T10:43:47.561Z,23.12
2019-05-05T10:44:44.635Z,23.06
2019-05-05T10:45:41.376Z,23.06
2019-05-05T10:46:38.086Z,23.00
2019-05-05T10:47:34.806Z,23.00
2019-05-05T10:48:31.521Z,23.00
2019-05-05T10:49:28.244Z,22.94
2019-05-05T10:50:24.965Z,22.87
2019-05-05T10:51:23.683Z,22.87
2019-05-05T10:52:20.194Z,22.87
2019-05-05T10:53:16.898Z,22.81
2019-05-05T10:54:14.244Z,22.81
2019-05-05T10:55:11.000Z,22.75
2019-05-05T10:56:07.701Z,22.75
2019-05-05T10:57:04.418Z,22.69
2019-05-05T10:58:01.162Z,22.69
2019-05-05T10:58:57.870Z,22.69
2019-05-05T10:59:54.577Z,22.62
2019-05-05T11:01:01.386Z,22.62
2019-05-05T11:01:58.094Z,22.56
2019-05-05T11:02:54.796Z,22.56
2019-05-05T11:03:51.533Z,22.50
2019-05-05T11:04:48.243Z,22.50
2019-05-05T11:05:45.189Z,22.44
2019-05-05T11:06:43.706Z,22.44
2019-05-05T11:07:40.576Z,22.44
2019-05-05T11:08:37.305Z,22.37
2019-05-05T11:09:34.008Z,22.37
2019-05-05T11:10:30.712Z,22.37
2019-05-05T11:11:27.421Z,22.31
2019-05-05T11:12:24.688Z,22.31
2019-05-05T11:13:21.426Z,22.25
2019-05-05T11:14:18.157Z,22.25
2019-05-05T11:15:14.876Z,22.25
2019-05-05T11:16:11.665Z,22.25
2019-05-05T11:17:08.345Z,22.19
2019-05-05T11:18:05.083Z,22.19
2019-05-05T11:19:01.844Z,22.13
2019-05-05T11:19:58.576Z,22.13
2019-05-05T11:20:55.307Z,22.13
2019-05-05T11:21:53.906Z,22.06
2019-05-05T11:22:50.502Z,22.06
2019-05-05T11:23:47.253Z,22.06
2019-05-05T11:24:55.195Z,22.00
2019-05-05T11:25:44.233Z,22.00
2019-05-05T11:26:40.982Z,22.00
2019-05-05T11:27:37.693Z,21.94
2019-05-05T11:28:34.407Z,22.37
2019-05-05T11:29:31.156Z,23.00
2019-05-05T11:30:27.853Z,23.38
2019-05-05T11:31:24.560Z,23.87
2019-05-05T11:32:40.758Z,24.56
2019-05-05T11:34:03.038Z,26.44
2019-05-05T11:34:59.740Z,29.31
2019-05-05T11:36:04.434Z,31.25
2019-05-05T11:37:09.368Z,33.31
2019-05-05T11:38:06.081Z,35.13
2019-05-05T11:39:04.497Z,36.38
2019-05-05T11:40:01.211Z,37.38
2019-05-05T11:40:57.921Z,37.75
2019-05-05T11:41:54.931Z,37.56
2019-05-05T11:42:51.630Z,37.25
2019-05-05T11:43:48.358Z,36.94
2019-05-05T11:44:47.461Z,36.69
2019-05-05T11:45:43.908Z,36.31
2019-05-05T11:46:40.678Z,35.94
2019-05-05T11:47:37.410Z,35.50
2019-05-05T11:48:34.512Z,35.00
2019-05-05T11:49:31.266Z,34.38
2019-05-05T11:50:27.966Z,33.75
2019-05-05T11:51:25.070Z,33.00
2019-05-05T11:52:21.886Z,32.13
2019-05-05T11:53:18.602Z,31.31
2019-05-05T11:54:15.318Z,30.56
2019-05-05T11:55:12.811Z,30.19
2019-05-05T11:56:10.545Z,30.62
2019-05-05T11:57:07.254Z,31.69
2019-05-05T11:58:03.972Z,33.13
2019-05-05T11:59:00.682Z,34.44
2019-05-05T11:59:57.418Z,35.25
2019-05-05T12:00:54.713Z,35.50
2019-05-05T12:01:51.529Z,35.38
2019-05-05T12:02:48.235Z,35.06
2019-05-05T12:03:44.941Z,34.63
2019-05-05T12:04:41.659Z,34.19
2019-05-05T12:05:38.397Z,33.75
2019-05-05T12:06:35.109Z,33.31
2019-05-05T12:07:31.821Z,32.81
2019-05-05T12:08:28.530Z,32.31
2019-05-05T12:09:33.426Z,31.81
2019-05-05T12:10:46.661Z,31.25
2019-05-05T12:11:43.899Z,30.62
2019-05-05T12:12:40.676Z,30.12
2019-05-05T12:13:37.382Z,29.63
2019-05-05T12:14:34.183Z,29.50
2019-05-05T12:15:30.926Z,29.94
2019-05-05T12:16:32.053Z,31.00
2019-05-05T12:17:35.134Z,32.31
2019-05-05T12:18:31.745Z,33.63
2019-05-05T12:19:28.449Z,34.50
2019-05-05T12:20:25.149Z,34.81
2019-05-05T12:21:21.886Z,34.81
2019-05-05T12:22:18.593Z,34.56
2019-05-05T12:23:15.289Z,34.19
2019-05-05T12:24:17.844Z,33.88
2019-05-05T12:25:36.797Z,33.44
2019-05-05T12:26:59.195Z,32.88
2019-05-05T12:28:04.395Z,32.19
2019-05-05T12:29:09.670Z,31.62
2019-05-05T12:30:08.601Z,31.06
2019-05-05T12:31:06.969Z,30.56
2019-05-05T12:32:03.686Z,30.06
2019-05-05T12:33:00.393Z,29.69
2019-05-05T12:33:57.096Z,29.81
2019-05-05T12:34:53.914Z,30.62
2019-05-05T12:35:50.625Z,31.81
2019-05-05T12:36:47.364Z,33.13
2019-05-05T12:37:44.518Z,34.25
2019-05-05T12:38:41.277Z,34.94